| time (UTC) | temp F | wind direction | speed MPH | gust MPH | rain 1hr in | rain 24hr in | rain mn in | humidity % | barometer mb |
| 20260510103554 | 51 | 4 | 0.0 | 0.0 | 0.00 | 0.00 | 0.00 | 99 | 1012.3 |
| 20260510103050 | 51 | 4 | 0.0 | 0.0 | 0.00 | 0.00 | 0.00 | 99 | 1012.3 |
| 20260510102545 | 51 | 4 | 0.0 | 0.0 | 0.00 | 0.00 | 0.00 | 99 | 1011.9 |
| 20260510102041 | 51 | 4 | 0.0 | 0.0 | 0.00 | 0.00 | 0.00 | 99 | 1011.8 |
| 20260510101539 | 51 | 4 | 0.0 | 0.0 | 0.00 | 0.00 | 0.00 | 99 | 1011.9 |
| 20260510101038 | 51 | 4 | 0.0 | 0.0 | 0.00 | 0.00 | 0.00 | 99 | 1011.8 |
| 20260510100533 | 51 | 4 | 0.0 | 0.0 | 0.00 | 0.00 | 0.00 | 99 | 1011.9 |
| 20260510100031 | 51 | 4 | 0.0 | 0.0 | 0.00 | 0.00 | 0.00 | 99 | 1011.5 |
| 20260510095527 | 52 | 4 | 0.0 | 0.0 | 0.00 | 0.00 | 0.00 | 99 | 1011.5 |
| 20260510095026 | 52 | 4 | 0.0 | 0.0 | 0.00 | 0.00 | 0.00 | 99 | 1011.8 |
| 20260510094520 | 52 | 4 | 0.0 | 0.0 | 0.00 | 0.00 | 0.00 | 99 | 1012.0 |
| 20260510094017 | 52 | 4 | 0.0 | 0.0 | 0.00 | 0.00 | 0.00 | 99 | 1011.6 |
| 20260510093512 | 52 | 3 | 0.0 | 0.0 | 0.00 | 0.00 | 0.00 | 99 | 1011.7 |
| 20260510093009 | 52 | 4 | 0.0 | 0.0 | 0.00 | 0.00 | 0.00 | 99 | 1011.4 |
| 20260510092507 | 52 | 4 | 0.0 | 0.0 | 0.00 | 0.00 | 0.00 | 99 | 1011.7 |
| 20260510092006 | 52 | 3 | 0.0 | 0.0 | 0.00 | 0.00 | 0.00 | 99 | 1011.7 |
| 20260510091503 | 52 | 3 | 0.0 | 0.0 | 0.00 | 0.00 | 0.00 | 99 | 1011.4 |
| 20260510090959 | 52 | 4 | 0.0 | 0.0 | 0.00 | 0.00 | 0.00 | 99 | 1011.5 |
| 20260510090456 | 52 | 4 | 0.0 | 0.0 | 0.00 | 0.00 | 0.00 | 99 | 1011.3 |
| 20260510085951 | 52 | 4 | 2.0 | 2.0 | 0.00 | 0.00 | 0.00 | 99 | 1011.3 |
| 20260510085447 | 52 | 1 | 0.0 | 0.0 | 0.00 | 0.00 | 0.00 | 99 | 1011.3 |
| 20260510084943 | 51 | 1 | 0.0 | 0.0 | 0.00 | 0.00 | 0.00 | 99 | 1011.5 |
| 20260510084440 | 51 | 0 | 0.0 | 0.0 | 0.00 | 0.00 | 0.00 | 99 | 1011.7 |
| 20260510083936 | 51 | 0 | 0.0 | 0.0 | 0.00 | 0.00 | 0.00 | 99 | 1011.8 |
| 20260510083433 | 51 | 0 | 0.0 | 0.0 | 0.00 | 0.00 | 0.00 | 99 | 1011.8 |
| 20260510082928 | 51 | 1 | 0.0 | 0.0 | 0.00 | 0.00 | 0.00 | 99 | 1011.6 |
| 20260510082427 | 51 | 1 | 0.0 | 0.0 | 0.00 | 0.00 | 0.00 | 99 | 1011.5 |
| 20260510081925 | 51 | 0 | 2.0 | 2.0 | 0.00 | 0.00 | 0.00 | 99 | 1011.8 |
| 20260510081421 | 51 | 1 | 0.0 | 0.0 | 0.00 | 0.00 | 0.00 | 99 | 1011.9 |
| 20260510080918 | 51 | 0 | 0.0 | 0.0 | 0.00 | 0.00 | 0.00 | 98 | 1011.6 |
| 20260510080417 | 51 | 341 | 0.0 | 0.0 | 0.00 | 0.00 | 0.00 | 98 | 1011.9 |
| 20260510075914 | 51 | 1 | 1.0 | 0.0 | 0.00 | 0.00 | 0.00 | 98 | 1011.4 |
| 20260510075412 | 51 | 353 | 4.0 | 5.0 | 0.00 | 0.00 | 0.00 | 98 | 1011.5 |
| 20260510074908 | 51 | 344 | 2.0 | 2.0 | 0.00 | 0.00 | 0.00 | 98 | 1011.6 |
| 20260510074405 | 51 | 356 | 0.0 | 0.0 | 0.00 | 0.00 | 0.00 | 98 | 1011.1 |
| 20260510073902 | 51 | 356 | 0.0 | 0.0 | 0.00 | 0.00 | 0.00 | 98 | 1011.1 |
| 20260510073357 | 50 | 356 | 0.0 | 0.0 | 0.00 | 0.00 | 0.00 | 98 | 1010.9 |
| 20260510072854 | 50 | 356 | 0.0 | 0.0 | 0.00 | 0.00 | 0.00 | 98 | 1011.0 |
| 20260510072351 | 50 | 356 | 0.0 | 0.0 | 0.00 | 0.00 | 0.00 | 98 | 1011.1 |
| 20260510071847 | 50 | 356 | 0.0 | 0.0 | 0.00 | 0.00 | 0.00 | 98 | 1011.0 |
| 20260510071343 | 50 | 356 | 0.0 | 0.0 | 0.00 | 0.00 | 0.00 | 98 | 1011.0 |
| 20260510070842 | 50 | 356 | 0.0 | 0.0 | 0.00 | 0.00 | 0.00 | 98 | 1010.9 |
| 20260510070338 | 50 | 356 | 0.0 | 0.0 | 0.00 | 0.00 | 0.00 | 98 | 1011.0 |
| 20260510065833 | 50 | 356 | 0.0 | 0.0 | 0.00 | 0.00 | 0.00 | 98 | 1011.0 |
| 20260510065330 | 50 | 356 | 0.0 | 0.0 | 0.00 | 0.00 | 0.00 | 98 | 1011.0 |
| 20260510064827 | 50 | 356 | 0.0 | 0.0 | 0.00 | 0.00 | 0.00 | 98 | 1011.0 |
| 20260510064325 | 50 | 316 | 4.0 | 5.0 | 0.00 | 0.00 | 0.00 | 98 | 1011.1 |
| 20260510063821 | 50 | 344 | 2.0 | 2.0 | 0.00 | 0.00 | 0.00 | 98 | 1010.9 |
| 20260510063317 | 50 | 344 | 1.0 | 2.0 | 0.00 | 0.00 | 0.00 | 98 | 1010.9 |
| 20260510062814 | 50 | 347 | 2.0 | 3.0 | 0.00 | 0.00 | 0.00 | 98 | 1010.8 |
| 20260510062309 | 50 | 66 | 1.0 | 2.0 | 0.00 | 0.00 | 0.00 | 98 | 1010.5 |
| 20260510061805 | 50 | 98 | 0.0 | 0.0 | 0.00 | 0.00 | 0.00 | 98 | 1010.4 |
| 20260510061302 | 50 | 98 | 0.0 | 0.0 | 0.00 | 0.00 | 0.00 | 98 | 1010.3 |
| 20260510060758 | 50 | 98 | 0.0 | 0.0 | 0.00 | 0.00 | 0.00 | 98 | 1010.3 |
| 20260510060255 | 49 | 98 | 0.0 | 0.0 | 0.00 | 0.00 | 0.00 | 98 | 1010.5 |
| 20260510055752 | 49 | 98 | 0.0 | 0.0 | 0.00 | 0.00 | 0.00 | 98 | 1010.6 |
| 20260510055250 | 49 | 98 | 0.0 | 0.0 | 0.00 | 0.00 | 0.00 | 98 | 1010.5 |
| 20260510054750 | 49 | 98 | 0.0 | 0.0 | 0.00 | 0.00 | 0.00 | 98 | 1010.5 |
| 20260510054246 | 49 | 98 | 0.0 | 0.0 | 0.00 | 0.00 | 0.00 | 98 | 1010.8 |
| 20260510053746 | 49 | 98 | 0.0 | 0.0 | 0.00 | 0.00 | 0.00 | 98 | 1010.8 |
| 20260510053242 | 49 | 98 | 0.0 | 0.0 | 0.00 | 0.00 | 0.00 | 98 | 1010.9 |
| 20260510052738 | 48 | 98 | 0.0 | 0.0 | 0.00 | 0.00 | 0.00 | 98 | 1010.9 |
| 20260510052234 | 48 | 98 | 0.0 | 0.0 | 0.00 | 0.00 | 0.00 | 98 | 1010.9 |
| 20260510051730 | 48 | 98 | 0.0 | 0.0 | 0.00 | 0.00 | 0.00 | 98 | 1011.0 |
| 20260510051227 | 48 | 98 | 0.0 | 0.0 | 0.00 | 0.00 | 0.00 | 98 | 1010.9 |
| 20260510050724 | 48 | 98 | 0.0 | 0.0 | 0.00 | 0.00 | 0.00 | 98 | 1010.8 |
| 20260510050221 | 47 | 98 | 0.0 | 0.0 | 0.00 | 0.00 | 0.00 | 98 | 1011.0 |
| 20260510045718 | 47 | 98 | 0.0 | 0.0 | 0.00 | 0.00 | 0.00 | 98 | 1010.8 |
| 20260510045214 | 47 | 98 | 0.0 | 0.0 | 0.00 | 0.00 | 0.00 | 98 | 1011.0 |
| 20260510044710 | 47 | 98 | 0.0 | 0.0 | 0.00 | 0.00 | 0.00 | 98 | 1010.8 |
| 20260510044209 | 47 | 98 | 0.0 | 0.0 | 0.00 | 0.00 | 0.00 | 98 | 1011.1 |
| 20260510043704 | 47 | 98 | 0.0 | 0.0 | 0.00 | 0.00 | 0.00 | 98 | 1011.2 |
| 20260510043201 | 47 | 98 | 0.0 | 0.0 | 0.00 | 0.00 | 0.00 | 98 | 1011.1 |
| 20260510042658 | 47 | 98 | 0.0 | 0.0 | 0.00 | 0.00 | 0.00 | 98 | 1011.2 |
| 20260510042154 | 47 | 98 | 0.0 | 0.0 | 0.00 | 0.00 | 0.00 | 97 | 1011.2 |
| 20260510041651 | 48 | 98 | 0.0 | 0.0 | 0.00 | 0.00 | 0.00 | 97 | 1011.2 |
| 20260510041148 | 47 | 98 | 0.0 | 0.0 | 0.00 | 0.00 | 0.00 | 97 | 1010.9 |
| 20260510040645 | 48 | 98 | 0.0 | 0.0 | 0.00 | 0.00 | 0.00 | 97 | 1011.2 |
| 20260510040142 | 48 | 98 | 0.0 | 0.0 | 0.00 | 0.17 | 0.17 | 97 | 1011.0 |
| 20260510035637 | 48 | 98 | 0.0 | 0.0 | 0.00 | 0.17 | 0.17 | 97 | 1011.3 |
| 20260510035133 | 48 | 98 | 0.0 | 0.0 | 0.00 | 0.17 | 0.17 | 97 | 1011.2 |
| 20260510034630 | 48 | 98 | 0.0 | 0.0 | 0.00 | 0.17 | 0.17 | 97 | 1011.1 |
| 20260510034127 | 48 | 98 | 0.0 | 0.0 | 0.00 | 0.17 | 0.17 | 97 | 1011.2 |
| 20260510033623 | 48 | 98 | 0.0 | 0.0 | 0.00 | 0.17 | 0.17 | 97 | 1011.1 |
| 20260510033121 | 48 | 98 | 0.0 | 0.0 | 0.00 | 0.17 | 0.17 | 97 | 1011.0 |
| 20260510032617 | 49 | 98 | 0.0 | 0.0 | 0.00 | 0.17 | 0.17 | 97 | 1010.9 |
| 20260510032113 | 49 | 98 | 0.0 | 0.0 | 0.00 | 0.17 | 0.17 | 97 | 1011.1 |
| 20260510031608 | 49 | 98 | 0.0 | 0.0 | 0.00 | 0.17 | 0.17 | 97 | 1011.0 |
| 20260510031104 | 49 | 98 | 0.0 | 0.0 | 0.00 | 0.17 | 0.17 | 97 | 1010.9 |
| 20260510030559 | 49 | 98 | 0.0 | 0.0 | 0.00 | 0.17 | 0.17 | 97 | 1010.8 |
| 20260510030057 | 49 | 98 | 0.0 | 0.0 | 0.00 | 0.17 | 0.17 | 97 | 1010.6 |
| 20260510025554 | 49 | 98 | 0.0 | 0.0 | 0.00 | 0.17 | 0.17 | 97 | 1010.6 |
| 20260510025052 | 49 | 98 | 0.0 | 0.0 | 0.00 | 0.17 | 0.17 | 97 | 1010.6 |
| 20260510024548 | 50 | 98 | 0.0 | 0.0 | 0.00 | 0.17 | 0.17 | 97 | 1010.5 |
| 20260510024044 | 50 | 98 | 0.0 | 0.0 | 0.00 | 0.17 | 0.17 | 97 | 1010.8 |
| 20260510023541 | 50 | 98 | 0.0 | 0.0 | 0.00 | 0.17 | 0.17 | 97 | 1010.6 |
| 20260510023038 | 50 | 98 | 0.0 | 0.0 | 0.00 | 0.17 | 0.17 | 97 | 1010.6 |
| 20260510022537 | 50 | 98 | 0.0 | 0.0 | 0.00 | 0.17 | 0.17 | 96 | 1010.4 |
| 20260510022031 | 50 | 98 | 0.0 | 0.0 | 0.00 | 0.17 | 0.17 | 96 | 1010.8 |
| 20260510021528 | 50 | 98 | 0.0 | 0.0 | 0.00 | 0.17 | 0.17 | 96 | 1010.6 |
| 20260510021026 | 50 | 98 | 0.0 | 0.0 | 0.00 | 0.17 | 0.17 | 96 | 1010.6 |
| 20260510020520 | 50 | 98 | 0.0 | 0.0 | 0.00 | 0.17 | 0.17 | 96 | 1010.8 |
| 20260510020016 | 51 | 98 | 0.0 | 0.0 | 0.00 | 0.17 | 0.17 | 96 | 1010.5 |
| 20260510015512 | 51 | 98 | 0.0 | 0.0 | 0.00 | 0.17 | 0.17 | 96 | 1010.6 |
| 20260510015008 | 51 | 98 | 0.0 | 0.0 | 0.00 | 0.17 | 0.17 | 96 | 1010.8 |
| 20260510014505 | 51 | 98 | 0.0 | 0.0 | 0.00 | 0.17 | 0.17 | 96 | 1010.3 |
| 20260510014002 | 51 | 98 | 0.0 | 0.0 | 0.00 | 0.17 | 0.17 | 96 | 1010.3 |
| 20260510013456 | 51 | 98 | 0.0 | 0.0 | 0.00 | 0.17 | 0.17 | 96 | 1010.3 |
| 20260510012952 | 51 | 98 | 0.0 | 0.0 | 0.00 | 0.17 | 0.17 | 96 | 1010.5 |
| 20260510012447 | 52 | 98 | 0.0 | 0.0 | 0.00 | 0.17 | 0.17 | 95 | 1010.3 |
| 20260510011942 | 52 | 98 | 0.0 | 0.0 | 0.00 | 0.17 | 0.17 | 95 | 1010.3 |
| 20260510011437 | 52 | 98 | 0.0 | 0.0 | 0.00 | 0.17 | 0.17 | 95 | 1010.2 |
| 20260510010933 | 52 | 98 | 0.0 | 0.0 | 0.00 | 0.17 | 0.17 | 95 | 1010.3 |
| 20260510010431 | 52 | 98 | 0.0 | 0.0 | 0.00 | 0.17 | 0.17 | 95 | 1010.2 |
| 20260510005928 | 53 | 98 | 0.0 | 0.0 | 0.00 | 0.17 | 0.17 | 95 | 1010.0 |
| 20260510005423 | 53 | 98 | 0.0 | 0.0 | 0.00 | 0.17 | 0.17 | 94 | 1010.1 |
| 20260510004921 | 53 | 98 | 0.0 | 0.0 | 0.00 | 0.17 | 0.17 | 94 | 1010.1 |
| 20260510004418 | 53 | 98 | 0.0 | 0.0 | 0.00 | 0.17 | 0.17 | 94 | 1010.1 |
| 20260510003916 | 54 | 98 | 0.0 | 0.0 | 0.00 | 0.17 | 0.17 | 94 | 1009.9 |
| 20260510003413 | 54 | 98 | 0.0 | 0.0 | 0.00 | 0.17 | 0.17 | 94 | 1009.7 |
| 20260510002912 | 54 | 98 | 0.0 | 0.0 | 0.00 | 0.17 | 0.17 | 93 | 1009.8 |
| 20260510002409 | 54 | 98 | 0.0 | 0.0 | 0.00 | 0.17 | 0.17 | 93 | 1009.9 |
| 20260510001906 | 55 | 98 | 0.0 | 0.0 | 0.00 | 0.17 | 0.17 | 92 | 1010.0 |
| 20260510001403 | 55 | 98 | 0.0 | 0.0 | 0.00 | 0.17 | 0.17 | 91 | 1009.8 |
| 20260510000900 | 55 | 98 | 0.0 | 0.0 | 0.00 | 0.17 | 0.17 | 91 | 1009.7 |
| 20260510000357 | 56 | 98 | 0.0 | 0.0 | 0.00 | 0.17 | 0.17 | 89 | 1009.7 |
| 20260509235853 | 56 | 98 | 0.0 | 0.0 | 0.00 | 0.17 | 0.17 | 89 | 1009.6 |
| 20260509235350 | 57 | 98 | 0.0 | 0.0 | 0.00 | 0.17 | 0.17 | 89 | 1009.9 |
| 20260509234846 | 57 | 98 | 0.0 | 0.0 | 0.00 | 0.17 | 0.17 | 88 | 1009.9 |
| 20260509234343 | 58 | 98 | 0.0 | 0.0 | 0.00 | 0.17 | 0.17 | 88 | 1009.9 |
| 20260509233842 | 57 | 98 | 0.0 | 0.0 | 0.00 | 0.17 | 0.17 | 89 | 1009.8 |
| 20260509233339 | 57 | 98 | 0.0 | 0.0 | 0.00 | 0.17 | 0.17 | 89 | 1009.9 |
| 20260509232834 | 57 | 98 | 0.0 | 0.0 | 0.00 | 0.17 | 0.17 | 89 | 1009.9 |
| 20260509232332 | 57 | 98 | 0.0 | 0.0 | 0.00 | 0.17 | 0.17 | 89 | 1009.9 |
| 20260509231828 | 57 | 98 | 0.0 | 0.0 | 0.00 | 0.17 | 0.17 | 89 | 1010.0 |
| 20260509231325 | 57 | 98 | 1.0 | 2.0 | 0.00 | 0.17 | 0.17 | 89 | 1009.8 |
| 20260509230823 | 57 | 92 | 0.0 | 0.0 | 0.00 | 0.17 | 0.17 | 88 | 1009.9 |
| 20260509230320 | 58 | 106 | 2.0 | 2.0 | 0.00 | 0.17 | 0.17 | 88 | 1010.0 |
| 20260509225814 | 58 | 74 | 1.0 | 2.0 | 0.00 | 0.17 | 0.17 | 87 | 1009.7 |
| 20260509225312 | 59 | 73 | 1.0 | 0.0 | 0.00 | 0.17 | 0.17 | 86 | 1009.7 |
| 20260509224808 | 59 | 72 | 1.0 | 2.0 | 0.00 | 0.17 | 0.17 | 86 | 1009.8 |
| 20260509224304 | 60 | 70 | 1.0 | 2.0 | 0.00 | 0.17 | 0.17 | 84 | 1009.8 |
| 20260509223801 | 59 | 15 | 1.0 | 2.0 | 0.00 | 0.17 | 0.17 | 86 | 1009.8 |
| 20260509223258 | 59 | 15 | 0.0 | 0.0 | 0.00 | 0.17 | 0.17 | 87 | 1009.7 |
| 20260509222755 | 59 | 34 | 2.0 | 3.0 | 0.00 | 0.17 | 0.17 | 87 | 1009.6 |
| 20260509222250 | 59 | 346 | 1.0 | 2.0 | 0.00 | 0.17 | 0.17 | 88 | 1009.7 |
| 20260509221746 | 59 | 345 | 0.0 | 0.0 | 0.00 | 0.17 | 0.17 | 87 | 1009.9 |
| 20260509221243 | 59 | 343 | 0.0 | 0.0 | 0.00 | 0.17 | 0.17 | 87 | 1009.8 |
| 20260509220738 | 59 | 54 | 1.0 | 2.0 | 0.00 | 0.17 | 0.17 | 87 | 1009.5 |
| 20260509220235 | 59 | 11 | 1.0 | 2.0 | 0.00 | 0.17 | 0.17 | 87 | 1009.4 |
| 20260509215730 | 59 | 12 | 0.0 | 0.0 | 0.00 | 0.17 | 0.17 | 86 | 1009.8 |
| 20260509215227 | 59 | 12 | 0.0 | 0.0 | 0.00 | 0.17 | 0.17 | 85 | 1009.7 |
| 20260509214725 | 59 | 12 | 0.0 | 0.0 | 0.00 | 0.17 | 0.17 | 84 | 1009.6 |
| 20260509214221 | 60 | 0 | 1.0 | 2.0 | 0.00 | 0.17 | 0.17 | 84 | 1009.5 |
| 20260509213718 | 60 | 0 | 0.0 | 0.0 | 0.00 | 0.17 | 0.17 | 84 | 1009.6 |
| 20260509213214 | 59 | 0 | 0.0 | 0.0 | 0.00 | 0.17 | 0.17 | 83 | 1009.6 |
| 20260509212712 | 59 | 359 | 0.0 | 0.0 | 0.00 | 0.17 | 0.17 | 84 | 1009.5 |
| 20260509212208 | 59 | 359 | 0.0 | 0.0 | 0.00 | 0.17 | 0.17 | 85 | 1010.0 |
| 20260509211705 | 59 | 0 | 0.0 | 0.0 | 0.00 | 0.17 | 0.17 | 87 | 1009.9 |
| 20260509211201 | 59 | 0 | 0.0 | 0.0 | 0.00 | 0.17 | 0.17 | 83 | 1009.9 |
| 20260509210658 | 59 | 0 | 0.0 | 0.0 | 0.00 | 0.17 | 0.17 | 82 | 1009.9 |
| 20260509210155 | 60 | 359 | 0.0 | 0.0 | 0.00 | 0.17 | 0.17 | 81 | 1009.8 |
| 20260509205650 | 60 | 359 | 0.0 | 0.0 | 0.00 | 0.17 | 0.17 | 81 | 1010.1 |
| 20260509205149 | 60 | 0 | 0.0 | 0.0 | 0.00 | 0.17 | 0.17 | 82 | 1010.0 |
| 20260509204646 | 60 | 0 | 2.0 | 2.0 | 0.00 | 0.17 | 0.17 | 78 | 1010.2 |
| 20260509204142 | 59 | 3 | 1.0 | 2.0 | 0.00 | 0.17 | 0.17 | 84 | 1010.0 |
| 20260509203638 | 59 | 14 | 0.0 | 0.0 | 0.00 | 0.17 | 0.17 | 84 | 1009.7 |
| 20260509203137 | 59 | 359 | 2.0 | 2.0 | 0.00 | 0.17 | 0.17 | 84 | 1009.9 |
| 20260509202637 | 59 | 20 | 3.0 | 5.0 | 0.00 | 0.17 | 0.17 | 83 | 1009.9 |
| 20260509202132 | 58 | 5 | 0.0 | 0.0 | 0.00 | 0.17 | 0.17 | 87 | 1010.1 |
| 20260509201627 | 57 | 5 | 0.0 | 0.0 | 0.00 | 0.17 | 0.17 | 88 | 1009.7 |
| 20260509201125 | 57 | 9 | 0.0 | 0.0 | 0.00 | 0.17 | 0.17 | 89 | 1009.9 |
| 20260509200621 | 57 | 9 | 0.0 | 0.0 | 0.00 | 0.17 | 0.17 | 89 | 1009.8 |
| 20260509200117 | 56 | 10 | 0.0 | 0.0 | 0.00 | 0.17 | 0.17 | 89 | 1010.1 |
| 20260509195612 | 56 | 9 | 0.0 | 0.0 | 0.00 | 0.17 | 0.17 | 90 | 1010.2 |
| 20260509195107 | 56 | 10 | 2.0 | 2.0 | 0.00 | 0.17 | 0.17 | 89 | 1010.1 |
| 20260509194606 | 56 | 12 | 0.0 | 0.0 | 0.00 | 0.17 | 0.17 | 89 | 1010.1 |
| 20260509194105 | 56 | 12 | 2.0 | 3.0 | 0.05 | 0.17 | 0.17 | 90 | 1010.4 |
| 20260509193600 | 56 | 352 | 3.0 | 3.0 | 0.05 | 0.17 | 0.17 | 90 | 1010.3 |
| 20260509193056 | 56 | 2 | 2.0 | 2.0 | 0.00 | 0.16 | 0.16 | 91 | 1010.6 |
| 20260509192553 | 56 | 355 | 1.0 | 2.0 | 0.00 | 0.16 | 0.16 | 91 | 1010.4 |
| 20260509192043 | 56 | 355 | 0.0 | 0.0 | 0.00 | 0.16 | 0.16 | 91 | 1010.6 |
| 20260509191542 | 56 | 1 | 0.0 | 0.0 | 0.00 | 0.16 | 0.16 | 91 | 1010.8 |
| 20260509191038 | 56 | 354 | 0.0 | 0.0 | 0.00 | 0.16 | 0.16 | 91 | 1011.0 |
| 20260509190536 | 56 | 356 | 1.0 | 0.0 | 0.12 | 0.16 | 0.16 | 91 | 1010.9 |
| 20260509190034 | 56 | 356 | 1.0 | 2.0 | 0.12 | 0.16 | 0.16 | 90 | 1011.1 |
| 20260509185531 | 56 | 0 | 2.0 | 3.0 | 0.07 | 0.14 | 0.14 | 90 | 1011.1 |
| 20260509185027 | 56 | 347 | 1.0 | 2.0 | 0.07 | 0.14 | 0.14 | 90 | 1011.3 |
| 20260509184525 | 56 | 339 | 2.0 | 2.0 | 0.00 | 0.13 | 0.13 | 89 | 1011.5 |
| 20260509184021 | 57 | 357 | 2.0 | 3.0 | 0.00 | 0.13 | 0.13 | 88 | 1011.6 |
| 20260509183516 | 57 | 347 | 2.0 | 2.0 | 0.00 | 0.13 | 0.13 | 89 | 1011.7 |
| 20260509183013 | 57 | 345 | 4.0 | 5.0 | 0.05 | 0.13 | 0.13 | 88 | 1011.4 |
| 20260509182509 | 57 | 340 | 2.0 | 3.0 | 0.05 | 0.13 | 0.13 | 89 | 1011.3 |
| 20260509182006 | 57 | 324 | 1.0 | 2.0 | 0.00 | 0.12 | 0.12 | 89 | 1011.5 |
| 20260509181504 | 57 | 317 | 0.0 | 0.0 | 0.00 | 0.12 | 0.12 | 88 | 1011.5 |
| 20260509181002 | 57 | 297 | 0.0 | 0.0 | 0.00 | 0.12 | 0.12 | 89 | 1011.4 |
| 20260509180457 | 57 | 297 | 0.0 | 0.0 | 0.07 | 0.12 | 0.12 | 88 | 1011.7 |
| 20260509175954 | 57 | 297 | 1.0 | 2.0 | 0.07 | 0.12 | 0.12 | 88 | 1011.8 |
| 20260509175450 | 57 | 297 | 0.0 | 0.0 | 0.00 | 0.11 | 0.11 | 88 | 1011.6 |
| 20260509174948 | 57 | 297 | 0.0 | 0.0 | 0.05 | 0.11 | 0.11 | 87 | 1011.4 |
| 20260509174444 | 57 | 297 | 0.0 | 0.0 | 0.05 | 0.11 | 0.11 | 87 | 1011.5 |
| 20260509173939 | 57 | 297 | 1.0 | 0.0 | 0.07 | 0.10 | 0.10 | 87 | 1011.5 |
| 20260509173438 | 57 | 297 | 0.0 | 0.0 | 0.14 | 0.10 | 0.10 | 87 | 1011.5 |
| 20260509172935 | 57 | 297 | 1.0 | 2.0 | 0.14 | 0.10 | 0.10 | 88 | 1011.4 |
| 20260509172432 | 57 | 297 | 0.0 | 0.0 | 0.05 | 0.08 | 0.08 | 89 | 1011.5 |
| 20260509171928 | 58 | 297 | 0.0 | 0.0 | 0.12 | 0.08 | 0.08 | 89 | 1011.4 |
| 20260509171424 | 58 | 296 | 1.0 | 2.0 | 0.07 | 0.07 | 0.07 | 89 | 1011.5 |
| 20260509170921 | 58 | 296 | 0.0 | 0.0 | 0.05 | 0.06 | 0.06 | 88 | 1011.4 |
| 20260509170416 | 57 | 296 | 0.0 | 0.0 | 0.05 | 0.06 | 0.06 | 89 | 1011.3 |
| 20260509165912 | 58 | 296 | 0.0 | 0.0 | 0.00 | 0.05 | 0.05 | 89 | 1011.2 |
| 20260509165406 | 58 | 296 | 0.0 | 0.0 | 0.07 | 0.05 | 0.05 | 87 | 1011.2 |
| 20260509164902 | 58 | 296 | 0.0 | 0.0 | 0.07 | 0.05 | 0.05 | 85 | 1011.1 |
| 20260509164359 | 58 | 296 | 0.0 | 0.0 | 0.07 | 0.05 | 0.05 | 84 | 1011.3 |
| 20260509163854 | 58 | 296 | 0.0 | 0.0 | 0.00 | 0.04 | 0.04 | 84 | 1011.4 |
| 20260509163352 | 58 | 296 | 0.0 | 0.0 | 0.05 | 0.04 | 0.04 | 84 | 1011.6 |
| 20260509162851 | 58 | 298 | 0.0 | 0.0 | 0.05 | 0.04 | 0.04 | 83 | 1011.4 |
| 20260509162349 | 58 | 333 | 2.0 | 2.0 | 0.00 | 0.03 | 0.03 | 83 | 1011.6 |
| 20260509161846 | 58 | 343 | 0.0 | 0.0 | 0.07 | 0.03 | 0.03 | 82 | 1011.5 |
| 20260509161342 | 58 | 19 | 1.0 | 2.0 | 0.12 | 0.03 | 0.03 | 82 | 1011.6 |
| 20260509160838 | 59 | 288 | 1.0 | 2.0 | 0.05 | 0.02 | 0.02 | 82 | 1011.8 |
| 20260509160334 | 59 | 303 | 1.0 | 2.0 | 0.07 | 0.01 | 0.01 | 80 | 1011.8 |
| 20260509155829 | 59 | 270 | 5.0 | 5.0 | 0.07 | 0.01 | 0.01 | 79 | 1011.8 |
| 20260509155326 | 60 | 260 | 4.0 | 5.0 | 0.00 | 0.00 | 0.00 | 77 | 1012.0 |
| 20260509154822 | 60 | 238 | 2.0 | 2.0 | 0.00 | 0.00 | 0.00 | 77 | 1011.8 |
| 20260509154319 | 60 | 309 | 4.0 | 3.0 | 0.00 | 0.00 | 0.00 | 78 | 1011.9 |
| 20260509153816 | 61 | 123 | 2.0 | 3.0 | 0.00 | 0.00 | 0.00 | 78 | 1011.8 |
| 20260509153313 | 61 | 264 | 4.0 | 5.0 | 0.00 | 0.00 | 0.00 | 77 | 1012.0 |
| 20260509152809 | 61 | 266 | 2.0 | 2.0 | 0.00 | 0.00 | 0.00 | 76 | 1012.3 |
| 20260509152306 | 61 | 222 | 5.0 | 5.0 | 0.00 | 0.00 | 0.00 | 76 | 1012.1 |
| 20260509151802 | 61 | 287 | 1.0 | 2.0 | 0.00 | 0.00 | 0.00 | 75 | 1011.9 |
| 20260509151258 | 61 | 244 | 3.0 | 5.0 | 0.00 | 0.00 | 0.00 | 74 | 1011.9 |
| 20260509150757 | 61 | 237 | 4.0 | 5.0 | 0.00 | 0.00 | 0.00 | 73 | 1011.9 |
| 20260509150255 | 61 | 151 | 2.0 | 2.0 | 0.00 | 0.00 | 0.00 | 73 | 1012.0 |
| 20260509145752 | 61 | 251 | 1.0 | 2.0 | 0.00 | 0.00 | 0.00 | 74 | 1011.8 |
| 20260509145251 | 61 | 225 | 3.0 | 3.0 | 0.00 | 0.00 | 0.00 | 72 | 1011.9 |
| 20260509144748 | 61 | 237 | 1.0 | 2.0 | 0.00 | 0.00 | 0.00 | 74 | 1011.9 |
| 20260509144245 | 61 | 264 | 2.0 | 2.0 | 0.00 | 0.00 | 0.00 | 74 | 1012.0 |
| 20260509143742 | 61 | 242 | 6.0 | 7.0 | 0.00 | 0.00 | 0.00 | 72 | 1011.7 |
| 20260509143240 | 61 | 295 | 2.0 | 2.0 | 0.00 | 0.00 | 0.00 | 73 | 1011.9 |
| 20260509142736 | 61 | 190 | 3.0 | 3.0 | 0.00 | 0.00 | 0.00 | 73 | 1011.8 |
| 20260509142232 | 61 | 168 | 4.0 | 5.0 | 0.00 | 0.00 | 0.00 | 73 | 1011.8 |
| 20260509141727 | 60 | 140 | 2.0 | 3.0 | 0.00 | 0.00 | 0.00 | 72 | 1011.6 |
| 20260509141225 | 60 | 190 | 4.0 | 5.0 | 0.00 | 0.00 | 0.00 | 72 | 1011.4 |
| 20260509140721 | 60 | 175 | 2.0 | 3.0 | 0.00 | 0.00 | 0.00 | 71 | 1011.6 |
| 20260509140222 | 60 | 230 | 2.0 | 2.0 | 0.00 | 0.00 | 0.00 | 72 | 1011.6 |
| 20260509135716 | 60 | 103 | 2.0 | 2.0 | 0.00 | 0.00 | 0.00 | 71 | 1011.5 |
| 20260509135214 | 60 | 108 | 2.0 | 3.0 | 0.00 | 0.00 | 0.00 | 71 | 1011.5 |
| 20260509134710 | 60 | 173 | 2.0 | 3.0 | 0.00 | 0.00 | 0.00 | 71 | 1011.5 |
| 20260509134208 | 60 | 105 | 6.0 | 7.0 | 0.00 | 0.00 | 0.00 | 70 | 1011.5 |
| 20260509133705 | 60 | 225 | 2.0 | 3.0 | 0.00 | 0.00 | 0.00 | 72 | 1011.4 |
| 20260509133202 | 60 | 285 | 4.0 | 3.0 | 0.00 | 0.00 | 0.00 | 73 | 1011.4 |
| 20260509132700 | 60 | 268 | 0.0 | 2.0 | 0.00 | 0.00 | 0.00 | 73 | 1012.0 |
| 20260509132159 | 60 | 27 | 1.0 | 2.0 | 0.00 | 0.00 | 0.00 | 74 | 1011.4 |
| 20260509131654 | 59 | 240 | 0.0 | 0.0 | 0.00 | 0.00 | 0.00 | 74 | 1011.2 |
| 20260509131151 | 59 | 241 | 0.0 | 0.0 | 0.00 | 0.00 | 0.00 | 75 | 1011.6 |
| 20260509130647 | 59 | 277 | 2.0 | 2.0 | 0.00 | 0.00 | 0.00 | 73 | 1011.2 |
| 20260509130143 | 59 | 274 | 2.0 | 2.0 | 0.00 | 0.00 | 0.00 | 73 | 1011.5 |
| 20260509125640 | 59 | 38 | 2.0 | 3.0 | 0.00 | 0.00 | 0.00 | 73 | 1011.5 |
| 20260509125137 | 58 | 313 | 0.0 | 0.0 | 0.00 | 0.00 | 0.00 | 75 | 1011.3 |
| 20260509124633 | 58 | 313 | 0.0 | 0.0 | 0.00 | 0.00 | 0.00 | 76 | 1011.5 |
| 20260509124131 | 58 | 313 | 0.0 | 0.0 | 0.00 | 0.00 | 0.00 | 76 | 1011.6 |
| 20260509123628 | 57 | 313 | 1.0 | 2.0 | 0.00 | 0.00 | 0.00 | 77 | 1011.6 |
| 20260509123125 | 57 | 313 | 0.0 | 0.0 | 0.00 | 0.00 | 0.00 | 77 | 1011.6 |
| 20260509122621 | 57 | 313 | 0.0 | 0.0 | 0.00 | 0.00 | 0.00 | 77 | 1011.6 |
| 20260509122118 | 56 | 312 | 0.0 | 0.0 | 0.00 | 0.00 | 0.00 | 79 | 1011.5 |
| 20260509121614 | 56 | 312 | 0.0 | 0.0 | 0.00 | 0.00 | 0.00 | 79 | 1011.7 |
| 20260509121113 | 56 | 312 | 0.0 | 0.0 | 0.00 | 0.00 | 0.00 | 80 | 1011.6 |
| 20260509120610 | 56 | 312 | 0.0 | 0.0 | 0.00 | 0.00 | 0.00 | 80 | 1011.5 |
| 20260509120108 | 55 | 312 | 0.0 | 0.0 | 0.00 | 0.00 | 0.00 | 80 | 1011.7 |
| 20260509115605 | 55 | 312 | 0.0 | 0.0 | 0.00 | 0.00 | 0.00 | 79 | 1011.6 |
| 20260509115103 | 55 | 312 | 0.0 | 0.0 | 0.00 | 0.00 | 0.00 | 78 | 1011.6 |
| 20260509114601 | 55 | 312 | 0.0 | 0.0 | 0.00 | 0.00 | 0.00 | 78 | 1011.6 |
| 20260509114100 | 55 | 312 | 0.0 | 0.0 | 0.00 | 0.00 | 0.00 | 78 | 1011.5 |
| 20260509113557 | 55 | 312 | 0.0 | 0.0 | 0.00 | 0.00 | 0.00 | 78 | 1011.3 |
| 20260509113055 | 55 | 312 | 0.0 | 0.0 | 0.00 | 0.00 | 0.00 | 78 | 1011.4 |
| 20260509112551 | 55 | 312 | 0.0 | 0.0 | 0.00 | 0.00 | 0.00 | 78 | 1011.5 |
| 20260509112048 | 55 | 312 | 0.0 | 0.0 | 0.00 | 0.00 | 0.00 | 78 | 1011.5 |
| 20260509111546 | 55 | 312 | 0.0 | 0.0 | 0.00 | 0.00 | 0.00 | 79 | 1011.3 |
| 20260509111043 | 54 | 312 | 0.0 | 0.0 | 0.00 | 0.00 | 0.00 | 80 | 1011.4 |
| 20260509110539 | 54 | 312 | 0.0 | 0.0 | 0.00 | 0.00 | 0.00 | 81 | 1011.5 |
| 20260509110036 | 54 | 312 | 0.0 | 0.0 | 0.00 | 0.00 | 0.00 | 82 | 1011.4 |
| 20260509105534 | 53 | 312 | 0.0 | 0.0 | 0.00 | 0.00 | 0.00 | 83 | 1011.6 |
| 20260509105032 | 53 | 312 | 0.0 | 0.0 | 0.00 | 0.00 | 0.00 | 83 | 1011.5 |
| 20260509104529 | 53 | 312 | 0.0 | 0.0 | 0.00 | 0.00 | 0.00 | 83 | 1011.4 |
| 20260509104025 | 53 | 312 | 0.0 | 0.0 | 0.00 | 0.00 | 0.00 | 82 | 1011.5 |